sensor_id;sensor_type;location;lat;lon;timestamp;pressure;altitude;pressure_sealevel;temperature;humidity
39075;BME280;24826;52.070;20.970;2022-10-16T00:01:08;61679.03;;;-147.04;100.00
39075;BME280;24826;52.070;20.970;2022-10-16T00:03:56;61671.09;;;-147.04;100.00
39075;BME280;24826;52.070;20.970;2022-10-16T00:06:41;61730.75;;;-147.04;100.00
39075;BME280;24826;52.070;20.970;2022-10-16T00:09:26;61690.97;;;-147.04;100.00
39075;BME280;24826;52.070;20.970;2022-10-16T00:12:09;61673.06;;;-147.04;100.00
39075;BME280;24826;52.070;20.970;2022-10-16T00:14:54;61675.06;;;-147.04;100.00
39075;BME280;24826;52.070;20.970;2022-10-16T00:17:38;61730.75;;;-147.04;100.00
39075;BME280;24826;52.070;20.970;2022-10-16T00:20:23;61716.81;;;-147.04;100.00
39075;BME280;24826;52.070;20.970;2022-10-16T00:23:07;61692.97;;;-147.04;100.00
39075;BME280;24826;52.070;20.970;2022-10-16T00:25:56;61677.03;;;-147.04;100.00
39075;BME280;24826;52.070;20.970;2022-10-16T00:28:41;61702.91;;;-147.04;100.00
39075;BME280;24826;52.070;20.970;2022-10-16T00:31:26;61704.88;;;-147.04;99.95
39075;BME280;24826;52.070;20.970;2022-10-16T00:34:11;61687.00;;;-147.04;99.86
39075;BME280;24826;52.070;20.970;2022-10-16T00:36:55;61730.75;;;-147.04;99.92
39075;BME280;24826;52.070;20.970;2022-10-16T00:39:39;61730.75;;;-147.04;100.00
39075;BME280;24826;52.070;20.970;2022-10-16T00:42:24;61700.91;;;-147.04;99.79
39075;BME280;24826;52.070;20.970;2022-10-16T00:45:08;61694.94;;;-147.04;100.00
39075;BME280;24826;52.070;20.970;2022-10-16T00:47:55;61669.09;;;-147.04;100.00
39075;BME280;24826;52.070;20.970;2022-10-16T00:50:39;61720.78;;;-147.04;99.95
39075;BME280;24826;52.070;20.970;2022-10-16T00:53:27;61796.38;;;-147.04;99.75
39075;BME280;24826;52.070;20.970;2022-10-16T00:56:12;61690.97;;;-147.04;99.59
39075;BME280;24826;52.070;20.970;2022-10-16T00:58:56;61685.00;;;-147.04;100.00
39075;BME280;24826;52.070;20.970;2022-10-16T01:01:42;61716.81;;;-147.04;99.90
39075;BME280;24826;52.070;20.970;2022-10-16T01:04:31;61738.69;;;-147.04;99.55
39075;BME280;24826;52.070;20.970;2022-10-16T01:07:36;61698.91;;;-147.04;100.00
39075;BME280;24826;52.070;20.970;2022-10-16T01:13:33;61694.94;;;-147.04;100.00
39075;BME280;24826;52.070;20.970;2022-10-16T01:16:29;61728.75;;;-147.04;100.00
39075;BME280;24826;52.070;20.970;2022-10-16T01:22:37;61651.19;;;-147.04;100.00
39075;BME280;24826;52.070;20.970;2022-10-16T01:28:25;61692.97;;;-147.04;100.00
39075;BME280;24826;52.070;20.970;2022-10-16T01:31:15;61690.97;;;-147.04;100.00
39075;BME280;24826;52.070;20.970;2022-10-16T01:34:25;61708.88;;;-147.04;100.00
39075;BME280;24826;52.070;20.970;2022-10-16T01:37:16;61700.91;;;-147.04;100.00
39075;BME280;24826;52.070;20.970;2022-10-16T01:40:09;61687.00;;;-147.04;100.00
39075;BME280;24826;52.070;20.970;2022-10-16T01:42:59;61675.06;;;-147.04;100.00
39075;BME280;24826;52.070;20.970;2022-10-16T01:45:45;61710.84;;;-147.04;100.00
39075;BME280;24826;52.070;20.970;2022-10-16T01:48:31;61698.91;;;-147.04;100.00
39075;BME280;24826;52.070;20.970;2022-10-16T01:51:17;61714.84;;;-147.04;100.00
39075;BME280;24826;52.070;20.970;2022-10-16T01:54:05;61671.09;;;-147.04;100.00
39075;BME280;24826;52.070;20.970;2022-10-16T01:56:52;61752.63;;;-147.04;100.00
39075;BME280;24826;52.070;20.970;2022-10-16T01:59:44;61706.88;;;-147.04;100.00
39075;BME280;24826;52.070;20.970;2022-10-16T02:02:30;61708.88;;;-147.04;100.00
39075;BME280;24826;52.070;20.970;2022-10-16T02:05:28;61694.94;;;-147.04;100.00
39075;BME280;24826;52.070;20.970;2022-10-16T02:08:15;61702.91;;;-147.04;100.00
39075;BME280;24826;52.070;20.970;2022-10-16T02:11:01;61687.00;;;-147.04;100.00
39075;BME280;24826;52.070;20.970;2022-10-16T02:13:48;61690.97;;;-147.04;100.00
39075;BME280;24826;52.070;20.970;2022-10-16T02:16:41;61685.00;;;-147.04;100.00
39075;BME280;24826;52.070;20.970;2022-10-16T02:19:26;61694.94;;;-147.04;100.00
39075;BME280;24826;52.070;20.970;2022-10-16T02:22:15;61702.91;;;-147.04;100.00
39075;BME280;24826;52.070;20.970;2022-10-16T02:25:25;61724.78;;;-147.04;100.00
39075;BME280;24826;52.070;20.970;2022-10-16T02:28:24;61694.94;;;-147.04;100.00
39075;BME280;24826;52.070;20.970;2022-10-16T02:31:12;61700.91;;;-147.04;100.00
39075;BME280;24826;52.070;20.970;2022-10-16T02:34:01;61710.84;;;-147.04;100.00
39075;BME280;24826;52.070;20.970;2022-10-16T02:36:50;61671.09;;;-147.04;100.00
39075;BME280;24826;52.070;20.970;2022-10-16T02:39:35;61712.84;;;-147.04;100.00
39075;BME280;24826;52.070;20.970;2022-10-16T02:42:19;61854.03;;;-147.04;100.00
39075;BME280;24826;52.070;20.970;2022-10-16T02:45:05;61788.41;;;-147.04;100.00
39075;BME280;24826;52.070;20.970;2022-10-16T02:47:50;61690.97;;;-147.04;100.00
39075;BME280;24826;52.070;20.970;2022-10-16T02:50:34;61688.97;;;-147.04;100.00
39075;BME280;24826;52.070;20.970;2022-10-16T02:53:19;61774.50;;;-147.04;100.00
39075;BME280;24826;52.070;20.970;2022-10-16T02:56:03;61708.88;;;-147.04;100.00
39075;BME280;24826;52.070;20.970;2022-10-16T02:58:48;61702.91;;;-147.04;100.00
39075;BME280;24826;52.070;20.970;2022-10-16T03:01:32;61710.84;;;-147.04;100.00
39075;BME280;24826;52.070;20.970;2022-10-16T03:04:16;61730.75;;;-147.04;100.00
39075;BME280;24826;52.070;20.970;2022-10-16T03:07:00;61681.03;;;-147.04;100.00
39075;BME280;24826;52.070;20.970;2022-10-16T03:09:44;61688.97;;;-147.04;100.00
39075;BME280;24826;52.070;20.970;2022-10-16T03:12:29;61669.09;;;-147.04;100.00
39075;BME280;24826;52.070;20.970;2022-10-16T03:15:14;61694.94;;;-147.04;100.00
39075;BME280;24826;52.070;20.970;2022-10-16T03:17:58;61690.97;;;-147.04;100.00
39075;BME280;24826;52.070;20.970;2022-10-16T03:20:43;61681.03;;;-147.04;100.00
39075;BME280;24826;52.070;20.970;2022-10-16T03:23:27;61702.91;;;-147.04;100.00
39075;BME280;24826;52.070;20.970;2022-10-16T03:26:13;61718.81;;;-147.04;100.00
39075;BME280;24826;52.070;20.970;2022-10-16T03:28:57;61651.19;;;-147.04;100.00
39075;BME280;24826;52.070;20.970;2022-10-16T03:31:42;61679.03;;;-147.04;100.00
39075;BME280;24826;52.070;20.970;2022-10-16T03:34:26;61675.06;;;-147.04;100.00
39075;BME280;24826;52.070;20.970;2022-10-16T03:37:11;61677.03;;;-147.04;100.00
39075;BME280;24826;52.070;20.970;2022-10-16T03:39:55;61722.78;;;-147.04;100.00
39075;BME280;24826;52.070;20.970;2022-10-16T03:42:40;61710.84;;;-147.04;100.00
39075;BME280;24826;52.070;20.970;2022-10-16T03:45:24;61708.88;;;-147.04;100.00
39075;BME280;24826;52.070;20.970;2022-10-16T03:48:09;61694.94;;;-147.04;100.00
39075;BME280;24826;52.070;20.970;2022-10-16T03:50:53;61679.03;;;-147.04;100.00
39075;BME280;24826;52.070;20.970;2022-10-16T03:53:39;61679.03;;;-147.04;100.00
39075;BME280;24826;52.070;20.970;2022-10-16T03:56:23;61714.84;;;-147.04;100.00
39075;BME280;24826;52.070;20.970;2022-10-16T03:59:07;61840.13;;;-147.04;100.00
39075;BME280;24826;52.070;20.970;2022-10-16T04:01:51;61696.94;;;-147.04;100.00
39075;BME280;24826;52.070;20.970;2022-10-16T04:04:35;61665.13;;;-147.04;100.00
39075;BME280;24826;52.070;20.970;2022-10-16T04:07:19;61647.22;;;-147.04;100.00
39075;BME280;24826;52.070;20.970;2022-10-16T04:10:05;61665.13;;;-147.04;100.00
39075;BME280;24826;52.070;20.970;2022-10-16T04:12:49;61675.06;;;-147.04;100.00
39075;BME280;24826;52.070;20.970;2022-10-16T04:15:33;61655.16;;;-147.04;100.00
39075;BME280;24826;52.070;20.970;2022-10-16T04:18:18;61766.53;;;-147.04;100.00
39075;BME280;24826;52.070;20.970;2022-10-16T04:21:04;61661.13;;;-147.04;100.00
39075;BME280;24826;52.070;20.970;2022-10-16T04:23:49;61635.28;;;-147.04;100.00
39075;BME280;24826;52.070;20.970;2022-10-16T04:26:34;61690.97;;;-147.04;100.00
39075;BME280;24826;52.070;20.970;2022-10-16T04:29:18;61649.22;;;-147.04;100.00
39075;BME280;24826;52.070;20.970;2022-10-16T04:32:03;61637.28;;;-147.04;100.00
39075;BME280;24826;52.070;20.970;2022-10-16T04:34:47;61647.22;;;-147.04;100.00
39075;BME280;24826;52.070;20.970;2022-10-16T04:37:32;61651.19;;;-147.04;100.00
39075;BME280;24826;52.070;20.970;2022-10-16T04:40:16;61659.16;;;-147.04;100.00
39075;BME280;24826;52.070;20.970;2022-10-16T04:43:02;61655.16;;;-147.04;100.00
39075;BME280;24826;52.070;20.970;2022-10-16T04:45:47;61637.28;;;-147.04;100.00
39075;BME280;24826;52.070;20.970;2022-10-16T04:48:31;61631.31;;;-147.04;100.00
39075;BME280;24826;52.070;20.970;2022-10-16T04:51:16;61653.19;;;-147.04;100.00
39075;BME280;24826;52.070;20.970;2022-10-16T04:54:02;61675.06;;;-147.04;100.00
39075;BME280;24826;52.070;20.970;2022-10-16T04:56:46;61659.16;;;-147.04;100.00
39075;BME280;24826;52.070;20.970;2022-10-16T04:59:31;61750.63;;;-147.04;100.00
39075;BME280;24826;52.070;20.970;2022-10-16T05:02:15;61595.53;;;-147.04;100.00
39075;BME280;24826;52.070;20.970;2022-10-16T05:05:00;61631.31;;;-147.04;100.00
39075;BME280;24826;52.070;20.970;2022-10-16T05:07:44;61623.34;;;-147.04;100.00
39075;BME280;24826;52.070;20.970;2022-10-16T05:10:28;61585.56;;;-147.04;100.00
39075;BME280;24826;52.070;20.970;2022-10-16T05:13:13;61605.47;;;-147.04;100.00
39075;BME280;24826;52.070;20.970;2022-10-16T05:15:57;61611.44;;;-147.04;100.00
39075;BME280;24826;52.070;20.970;2022-10-16T05:18:41;61639.25;;;-147.04;100.00
39075;BME280;24826;52.070;20.970;2022-10-16T05:21:26;61603.47;;;-147.04;100.00
39075;BME280;24826;52.070;20.970;2022-10-16T05:24:10;61611.44;;;-147.04;100.00
39075;BME280;24826;52.070;20.970;2022-10-16T05:26:55;61617.38;;;-147.04;100.00
39075;BME280;24826;52.070;20.970;2022-10-16T05:29:39;61595.53;;;-147.04;100.00
39075;BME280;24826;52.070;20.970;2022-10-16T05:32:23;61591.53;;;-147.04;100.00
39075;BME280;24826;52.070;20.970;2022-10-16T05:35:08;61627.34;;;-147.04;100.00
39075;BME280;24826;52.070;20.970;2022-10-16T05:37:52;61619.38;;;-147.04;100.00
39075;BME280;24826;52.070;20.970;2022-10-16T05:40:37;61619.38;;;-147.04;100.00
39075;BME280;24826;52.070;20.970;2022-10-16T05:43:22;61591.53;;;-147.04;100.00
39075;BME280;24826;52.070;20.970;2022-10-16T05:46:07;61647.22;;;-147.04;100.00
39075;BME280;24826;52.070;20.970;2022-10-16T05:48:52;61619.38;;;-147.04;100.00
39075;BME280;24826;52.070;20.970;2022-10-16T05:51:37;61605.47;;;-147.04;100.00
39075;BME280;24826;52.070;20.970;2022-10-16T05:54:21;61605.47;;;-147.04;100.00
39075;BME280;24826;52.070;20.970;2022-10-16T05:57:05;61639.25;;;-147.04;100.00
39075;BME280;24826;52.070;20.970;2022-10-16T05:59:50;61611.44;;;-147.04;100.00
39075;BME280;24826;52.070;20.970;2022-10-16T06:02:34;61599.50;;;-147.04;100.00
39075;BME280;24826;52.070;20.970;2022-10-16T06:05:18;61639.25;;;-147.04;100.00
39075;BME280;24826;52.070;20.970;2022-10-16T06:08:02;61627.34;;;-147.04;100.00
39075;BME280;24826;52.070;20.970;2022-10-16T06:10:47;61603.47;;;-147.04;100.00
39075;BME280;24826;52.070;20.970;2022-10-16T06:13:32;61621.38;;;-147.04;100.00
39075;BME280;24826;52.070;20.970;2022-10-16T06:16:17;61615.41;;;-147.04;100.00
39075;BME280;24826;52.070;20.970;2022-10-16T06:19:03;61599.50;;;-147.04;100.00
39075;BME280;24826;52.070;20.970;2022-10-16T06:21:50;61633.31;;;-147.04;100.00
39075;BME280;24826;52.070;20.970;2022-10-16T06:24:34;61683.00;;;-147.04;100.00
39075;BME280;24826;52.070;20.970;2022-10-16T06:27:18;61661.13;;;-147.04;100.00
39075;BME280;24826;52.070;20.970;2022-10-16T06:30:03;61675.06;;;-147.04;100.00
39075;BME280;24826;52.070;20.970;2022-10-16T06:32:48;61651.19;;;-147.04;100.00
39075;BME280;24826;52.070;20.970;2022-10-16T06:35:32;61663.13;;;-147.04;100.00
39075;BME280;24826;52.070;20.970;2022-10-16T06:38:17;61635.28;;;-147.04;100.00
39075;BME280;24826;52.070;20.970;2022-10-16T06:41:01;61657.16;;;-147.04;100.00
39075;BME280;24826;52.070;20.970;2022-10-16T06:43:46;61637.28;;;-147.04;100.00
39075;BME280;24826;52.070;20.970;2022-10-16T06:46:31;61667.09;;;-147.04;100.00
39075;BME280;24826;52.070;20.970;2022-10-16T06:49:16;61694.94;;;-147.04;100.00
39075;BME280;24826;52.070;20.970;2022-10-16T06:52:05;61675.06;;;-147.04;100.00
39075;BME280;24826;52.070;20.970;2022-10-16T06:54:50;61786.41;;;-147.04;100.00
39075;BME280;24826;52.070;20.970;2022-10-16T06:57:34;61716.81;;;-147.04;100.00
39075;BME280;24826;52.070;20.970;2022-10-16T07:00:19;61710.84;;;-147.04;100.00
39075;BME280;24826;52.070;20.970;2022-10-16T07:03:03;61877.91;;;-147.04;100.00
39075;BME280;24826;52.070;20.970;2022-10-16T07:05:47;61726.75;;;-147.04;100.00
39075;BME280;24826;52.070;20.970;2022-10-16T07:08:36;61718.81;;;-147.04;100.00
39075;BME280;24826;52.070;20.970;2022-10-16T07:11:23;61704.88;;;-147.04;100.00
39075;BME280;24826;52.070;20.970;2022-10-16T07:14:15;61712.84;;;-147.04;100.00
39075;BME280;24826;52.070;20.970;2022-10-16T07:17:00;61698.91;;;-147.04;100.00
39075;BME280;24826;52.070;20.970;2022-10-16T07:19:44;61708.88;;;-147.04;100.00
39075;BME280;24826;52.070;20.970;2022-10-16T07:22:29;61698.91;;;-147.04;100.00
39075;BME280;24826;52.070;20.970;2022-10-16T07:25:13;61706.88;;;-147.04;100.00
39075;BME280;24826;52.070;20.970;2022-10-16T07:27:58;61714.84;;;-147.04;100.00
39075;BME280;24826;52.070;20.970;2022-10-16T07:30:42;61700.91;;;-147.04;100.00
39075;BME280;24826;52.070;20.970;2022-10-16T07:33:26;61687.00;;;-147.04;100.00
39075;BME280;24826;52.070;20.970;2022-10-16T07:36:12;61730.75;;;-147.04;100.00
39075;BME280;24826;52.070;20.970;2022-10-16T07:38:57;61744.66;;;-147.04;100.00
39075;BME280;24826;52.070;20.970;2022-10-16T07:41:41;61694.94;;;-147.04;100.00
39075;BME280;24826;52.070;20.970;2022-10-16T07:44:25;61716.81;;;-147.04;100.00
39075;BME280;24826;52.070;20.970;2022-10-16T07:47:09;61720.78;;;-147.04;100.00
39075;BME280;24826;52.070;20.970;2022-10-16T07:49:54;61736.72;;;-147.04;100.00
39075;BME280;24826;52.070;20.970;2022-10-16T07:52:38;61730.75;;;-147.04;100.00
39075;BME280;24826;52.070;20.970;2022-10-16T07:55:22;61738.69;;;-147.04;100.00
39075;BME280;24826;52.070;20.970;2022-10-16T07:58:07;61971.38;;;-147.04;100.00
39075;BME280;24826;52.070;20.970;2022-10-16T08:00:51;61750.63;;;-147.04;100.00
39075;BME280;24826;52.070;20.970;2022-10-16T08:03:36;61766.53;;;-147.04;100.00
39075;BME280;24826;52.070;20.970;2022-10-16T08:06:21;61766.53;;;-147.04;100.00
39075;BME280;24826;52.070;20.970;2022-10-16T08:09:06;61762.56;;;-147.04;100.00
39075;BME280;24826;52.070;20.970;2022-10-16T08:11:51;61770.50;;;-147.04;100.00
39075;BME280;24826;52.070;20.970;2022-10-16T08:14:36;61814.25;;;-147.04;100.00
39075;BME280;24826;52.070;20.970;2022-10-16T08:17:21;61734.72;;;-147.04;100.00
39075;BME280;24826;52.070;20.970;2022-10-16T08:20:06;61782.44;;;-147.04;100.00
39075;BME280;24826;52.070;20.970;2022-10-16T08:22:50;61782.44;;;-147.04;100.00
39075;BME280;24826;52.070;20.970;2022-10-16T08:25:35;61792.38;;;-147.04;100.00
39075;BME280;24826;52.070;20.970;2022-10-16T08:28:23;61774.50;;;-147.04;100.00
39075;BME280;24826;52.070;20.970;2022-10-16T08:31:13;61786.41;;;-147.04;100.00
39075;BME280;24826;52.070;20.970;2022-10-16T08:33:58;61850.06;;;-147.04;100.00
39075;BME280;24826;52.070;20.970;2022-10-16T08:36:42;61834.16;;;-147.04;100.00
39075;BME280;24826;52.070;20.970;2022-10-16T08:39:27;61810.28;;;-147.04;100.00
39075;BME280;24826;52.070;20.970;2022-10-16T08:48:20;61810.28;;;-147.04;100.00
39075;BME280;24826;52.070;20.970;2022-10-16T08:51:13;61832.16;;;-147.04;100.00
39075;BME280;24826;52.070;20.970;2022-10-16T08:56:47;61806.31;;;-147.04;100.00
39075;BME280;24826;52.070;20.970;2022-10-16T08:59:32;61834.16;;;-147.04;100.00
39075;BME280;24826;52.070;20.970;2022-10-16T09:05:23;61850.06;;;-147.04;100.00
39075;BME280;24826;52.070;20.970;2022-10-16T09:11:18;61798.34;;;-147.04;100.00
39075;BME280;24826;52.070;20.970;2022-10-16T09:20:38;61836.13;;;-147.04;100.00
39075;BME280;24826;52.070;20.970;2022-10-16T09:23:38;61856.03;;;-147.04;100.00
39075;BME280;24826;52.070;20.970;2022-10-16T09:26:22;61865.97;;;-147.04;100.00
39075;BME280;24826;52.070;20.970;2022-10-16T09:29:13;61832.16;;;-147.04;100.00
39075;BME280;24826;52.070;20.970;2022-10-16T09:32:11;61869.94;;;-147.04;100.00
39075;BME280;24826;52.070;20.970;2022-10-16T09:34:56;61862.00;;;-147.04;100.00
39075;BME280;24826;52.070;20.970;2022-10-16T09:37:43;61842.09;;;-147.04;100.00
39075;BME280;24826;52.070;20.970;2022-10-16T09:40:38;61848.06;;;-147.04;100.00
39075;BME280;24826;52.070;20.970;2022-10-16T09:43:32;61885.84;;;-147.04;100.00
39075;BME280;24826;52.070;20.970;2022-10-16T09:46:35;61871.94;;;-147.04;100.00
39075;BME280;24826;52.070;20.970;2022-10-16T09:49:24;61856.03;;;-147.04;100.00
39075;BME280;24826;52.070;20.970;2022-10-16T09:52:13;61877.91;;;-147.04;100.00
39075;BME280;24826;52.070;20.970;2022-10-16T09:55:13;61863.97;;;-147.04;100.00
39075;BME280;24826;52.070;20.970;2022-10-16T09:57:57;61895.78;;;-147.04;100.00
39075;BME280;24826;52.070;20.970;2022-10-16T10:00:49;61806.31;;;-147.04;100.00
39075;BME280;24826;52.070;20.970;2022-10-16T10:03:39;61909.72;;;-147.04;100.00
39075;BME280;24826;52.070;20.970;2022-10-16T10:06:30;61858.00;;;-147.04;100.00
39075;BME280;24826;52.070;20.970;2022-10-16T10:09:25;61885.84;;;-147.04;100.00
39075;BME280;24826;52.070;20.970;2022-10-16T10:15:13;61838.13;;;-147.04;100.00
39075;BME280;24826;52.070;20.970;2022-10-16T10:18:19;61879.88;;;-147.04;100.00
39075;BME280;24826;52.070;20.970;2022-10-16T10:21:13;61881.88;;;-147.04;100.00
39075;BME280;24826;52.070;20.970;2022-10-16T10:23:59;61862.00;;;-147.04;100.00
39075;BME280;24826;52.070;20.970;2022-10-16T10:27:03;61891.81;;;-147.04;100.00
39075;BME280;24826;52.070;20.970;2022-10-16T10:33:37;61905.75;;;-147.04;100.00
39075;BME280;24826;52.070;20.970;2022-10-16T10:36:39;61885.84;;;-147.04;100.00
39075;BME280;24826;52.070;20.970;2022-10-16T10:39:50;61929.59;;;-147.04;100.00
39075;BME280;24826;52.070;20.970;2022-10-16T10:42:51;61917.66;;;-147.04;100.00
39075;BME280;24826;52.070;20.970;2022-10-16T10:45:44;61925.63;;;-147.04;100.00
39075;BME280;24826;52.070;20.970;2022-10-16T10:54:31;61907.72;;;-147.04;100.00
39075;BME280;24826;52.070;20.970;2022-10-16T10:57:28;61929.59;;;-147.04;100.00
39075;BME280;24826;52.070;20.970;2022-10-16T11:00:56;61933.59;;;-147.04;100.00
39075;BME280;24826;52.070;20.970;2022-10-16T11:06:40;61975.34;;;-147.04;100.00
39075;BME280;24826;52.070;20.970;2022-10-16T11:09:30;61975.34;;;-147.04;100.00
39075;BME280;24826;52.070;20.970;2022-10-16T11:12:24;61933.59;;;-147.04;100.00
39075;BME280;24826;52.070;20.970;2022-10-16T11:15:17;61925.63;;;-147.04;100.00
39075;BME280;24826;52.070;20.970;2022-10-16T11:18:11;61961.41;;;-147.04;100.00
39075;BME280;24826;52.070;20.970;2022-10-16T11:21:05;61977.34;;;-147.04;100.00
39075;BME280;24826;52.070;20.970;2022-10-16T11:23:57;61973.34;;;-147.04;100.00
39075;BME280;24826;52.070;20.970;2022-10-16T11:26:45;61951.47;;;-147.04;100.00
39075;BME280;24826;52.070;20.970;2022-10-16T11:29:32;61965.41;;;-147.04;100.00
39075;BME280;24826;52.070;20.970;2022-10-16T11:32:52;61961.41;;;-147.04;100.00
39075;BME280;24826;52.070;20.970;2022-10-16T11:35:44;61959.44;;;-147.04;100.00
39075;BME280;24826;52.070;20.970;2022-10-16T11:38:55;61943.53;;;-147.04;100.00
39075;BME280;24826;52.070;20.970;2022-10-16T11:41:50;61951.47;;;-147.04;100.00
39075;BME280;24826;52.070;20.970;2022-10-16T11:45:02;61953.47;;;-147.04;100.00
39075;BME280;24826;52.070;20.970;2022-10-16T11:48:02;61959.44;;;-147.04;100.00
39075;BME280;24826;52.070;20.970;2022-10-16T11:50:58;61955.47;;;-147.04;100.00
39075;BME280;24826;52.070;20.970;2022-10-16T11:53:59;61965.41;;;-147.04;100.00
39075;BME280;24826;52.070;20.970;2022-10-16T11:56:48;61949.50;;;-147.04;100.00
39075;BME280;24826;52.070;20.970;2022-10-16T11:59:44;61961.41;;;-147.04;100.00
39075;BME280;24826;52.070;20.970;2022-10-16T12:08:30;61981.31;;;-147.04;100.00
39075;BME280;24826;52.070;20.970;2022-10-16T12:11:37;61979.31;;;-147.04;100.00
39075;BME280;24826;52.070;20.970;2022-10-16T12:23:03;62003.19;;;-147.04;100.00
39075;BME280;24826;52.070;20.970;2022-10-16T12:25:54;61993.25;;;-147.04;100.00
39075;BME280;24826;52.070;20.970;2022-10-16T12:28:39;61985.28;;;-147.04;100.00
39075;BME280;24826;52.070;20.970;2022-10-16T12:31:37;62001.19;;;-147.04;100.00
39075;BME280;24826;52.070;20.970;2022-10-16T12:34:41;62029.03;;;-147.04;100.00
39075;BME280;24826;52.070;20.970;2022-10-16T12:37:35;62038.97;;;-147.04;100.00
39075;BME280;24826;52.070;20.970;2022-10-16T12:43:24;62048.94;;;-147.04;100.00
39075;BME280;24826;52.070;20.970;2022-10-16T12:49:20;62084.72;;;-147.04;100.00
39075;BME280;24826;52.070;20.970;2022-10-16T12:52:37;62068.81;;;-147.04;100.00
39075;BME280;24826;52.070;20.970;2022-10-16T12:55:22;62066.81;;;-147.04;100.00
39075;BME280;24826;52.070;20.970;2022-10-16T13:01:17;62138.41;;;-147.04;100.00
39075;BME280;24826;52.070;20.970;2022-10-16T13:13:34;62033.00;;;-147.04;100.00
39075;BME280;24826;52.070;20.970;2022-10-16T13:22:44;62027.06;;;-147.04;100.00
39075;BME280;24826;52.070;20.970;2022-10-16T13:28:30;62046.94;;;-147.04;100.00
39075;BME280;24826;52.070;20.970;2022-10-16T13:31:22;62050.91;;;-147.04;100.00
39075;BME280;24826;52.070;20.970;2022-10-16T13:34:15;62007.16;;;-147.04;100.00
39075;BME280;24826;52.070;20.970;2022-10-16T13:37:00;62031.03;;;-147.04;100.00
39075;BME280;24826;52.070;20.970;2022-10-16T13:39:45;62005.19;;;-147.04;100.00
39075;BME280;24826;52.070;20.970;2022-10-16T13:42:30;62005.19;;;-147.04;100.00
39075;BME280;24826;52.070;20.970;2022-10-16T13:45:23;62040.97;;;-147.04;100.00
39075;BME280;24826;52.070;20.970;2022-10-16T13:48:09;62025.06;;;-147.04;100.00
39075;BME280;24826;52.070;20.970;2022-10-16T13:51:05;62009.16;;;-147.04;100.00
39075;BME280;24826;52.070;20.970;2022-10-16T13:53:49;62019.09;;;-147.04;100.00
39075;BME280;24826;52.070;20.970;2022-10-16T13:56:34;61949.50;;;-147.04;100.00
39075;BME280;24826;52.070;20.970;2022-10-16T13:59:33;62005.19;;;-147.04;100.00
39075;BME280;24826;52.070;20.970;2022-10-16T14:02:24;62017.09;;;-147.04;100.00
39075;BME280;24826;52.070;20.970;2022-10-16T14:05:10;62011.13;;;-147.04;100.00
39075;BME280;24826;52.070;20.970;2022-10-16T14:07:56;61989.25;;;-147.04;100.00
39075;BME280;24826;52.070;20.970;2022-10-16T14:10:40;62005.19;;;-147.04;100.00
39075;BME280;24826;52.070;20.970;2022-10-16T14:16:20;61991.25;;;-147.04;100.00
39075;BME280;24826;52.070;20.970;2022-10-16T14:19:05;61957.44;;;-147.04;100.00
39075;BME280;24826;52.070;20.970;2022-10-16T14:21:51;62100.63;;;-147.04;100.00
39075;BME280;24826;52.070;20.970;2022-10-16T14:24:36;61941.53;;;-147.04;100.00
39075;BME280;24826;52.070;20.970;2022-10-16T14:27:40;61989.25;;;-147.04;100.00
39075;BME280;24826;52.070;20.970;2022-10-16T14:30:25;61995.22;;;-147.04;100.00
39075;BME280;24826;52.070;20.970;2022-10-16T14:33:30;62074.78;;;-147.04;100.00
39075;BME280;24826;52.070;20.970;2022-10-16T14:36:17;61967.38;;;-147.04;100.00
39075;BME280;24826;52.070;20.970;2022-10-16T14:39:06;61995.22;;;-147.04;100.00
39075;BME280;24826;52.070;20.970;2022-10-16T14:41:57;61991.25;;;-147.04;100.00
39075;BME280;24826;52.070;20.970;2022-10-16T14:44:42;61977.34;;;-147.04;100.00
39075;BME280;24826;52.070;20.970;2022-10-16T14:47:27;62086.72;;;-147.04;100.00
39075;BME280;24826;52.070;20.970;2022-10-16T14:50:12;62042.97;;;-147.04;100.00
39075;BME280;24826;52.070;20.970;2022-10-16T14:52:58;61957.44;;;-147.04;100.00
39075;BME280;24826;52.070;20.970;2022-10-16T14:55:43;61943.53;;;-147.04;100.00
39075;BME280;24826;52.070;20.970;2022-10-16T14:58:27;61981.31;;;-147.04;100.00
39075;BME280;24826;52.070;20.970;2022-10-16T15:01:12;62038.97;;;-147.04;100.00
39075;BME280;24826;52.070;20.970;2022-10-16T15:03:57;61979.31;;;-147.04;100.00
39075;BME280;24826;52.070;20.970;2022-10-16T15:06:41;61929.59;;;-147.04;100.00
39075;BME280;24826;52.070;20.970;2022-10-16T15:09:25;61961.41;;;-147.04;100.00
39075;BME280;24826;52.070;20.970;2022-10-16T15:12:10;61985.28;;;-147.04;100.00
39075;BME280;24826;52.070;20.970;2022-10-16T15:14:54;61949.50;;;-147.04;100.00
39075;BME280;24826;52.070;20.970;2022-10-16T15:17:38;62120.53;;;-147.04;100.00
39075;BME280;24826;52.070;20.970;2022-10-16T15:20:24;61967.38;;;-147.04;100.00
39075;BME280;24826;52.070;20.970;2022-10-16T15:23:14;61969.38;;;-147.04;100.00
39075;BME280;24826;52.070;20.970;2022-10-16T15:25:59;61937.56;;;-147.04;100.00
39075;BME280;24826;52.070;20.970;2022-10-16T15:28:43;61967.38;;;-147.04;100.00
39075;BME280;24826;52.070;20.970;2022-10-16T15:31:32;61973.34;;;-147.04;100.00
39075;BME280;24826;52.070;20.970;2022-10-16T15:34:16;62038.97;;;-147.04;100.00
39075;BME280;24826;52.070;20.970;2022-10-16T15:37:03;61959.44;;;-147.04;100.00